createdAt,value
2017-01-29T00:00:23.325Z,0
2017-01-29T00:01:23.305Z,0
2017-01-29T00:02:23.292Z,0
2017-01-29T00:03:23.270Z,0
2017-01-29T00:04:23.247Z,0
2017-01-29T00:05:23.229Z,0
2017-01-29T00:06:23.238Z,4
2017-01-29T00:07:22.791Z,0
2017-01-29T00:08:23.175Z,0
2017-01-29T00:09:23.165Z,4
2017-01-29T00:10:23.133Z,0
2017-01-29T00:11:22.831Z,0
2017-01-29T00:12:22.701Z,0
2017-01-29T00:13:23.084Z,0
2017-01-29T00:14:23.060Z,0
2017-01-29T00:15:23.053Z,0
2017-01-29T00:16:23.016Z,0
2017-01-29T00:17:23.004Z,0
2017-01-29T00:18:22.979Z,0
2017-01-29T00:19:22.959Z,0
2017-01-29T00:20:22.947Z,0
2017-01-29T00:21:22.923Z,0
2017-01-29T00:22:22.908Z,0
2017-01-29T00:23:22.888Z,0
2017-01-29T00:24:22.867Z,0
2017-01-29T00:25:22.466Z,4
2017-01-29T00:26:22.827Z,0
2017-01-29T00:27:22.819Z,0
2017-01-29T00:28:22.795Z,4
2017-01-29T00:29:22.767Z,0
2017-01-29T00:30:22.750Z,0
2017-01-29T00:31:22.740Z,0
2017-01-29T00:32:22.715Z,0
2017-01-29T00:33:22.697Z,4
2017-01-29T00:34:22.683Z,4
2017-01-29T00:35:22.657Z,0
2017-01-29T00:36:22.639Z,4
2017-01-29T00:37:22.623Z,0
2017-01-29T00:38:22.604Z,4
2017-01-29T00:39:22.582Z,0
2017-01-29T00:40:22.563Z,4
2017-01-29T00:41:22.537Z,4
2017-01-29T00:42:22.522Z,4
2017-01-29T00:43:22.506Z,0
2017-01-29T00:44:22.489Z,0
2017-01-29T00:45:22.470Z,4
2017-01-29T00:46:22.443Z,4
2017-01-29T00:47:22.424Z,0
2017-01-29T00:48:22.458Z,4
2017-01-29T00:49:22.392Z,0
2017-01-29T00:50:22.374Z,0
2017-01-29T00:51:22.400Z,0
2017-01-29T00:52:22.333Z,0
2017-01-29T00:53:22.312Z,8
2017-01-29T00:54:22.290Z,4
2017-01-29T00:55:21.899Z,4
2017-01-29T00:56:22.259Z,0
2017-01-29T00:57:21.848Z,4
2017-01-29T00:58:21.830Z,4
2017-01-29T00:59:22.200Z,4
2017-01-29T01:00:22.184Z,0
2017-01-29T01:01:22.162Z,4
2017-01-29T01:02:22.147Z,0
2017-01-29T01:03:22.130Z,0
2017-01-29T01:04:22.108Z,0
2017-01-29T01:05:22.089Z,0
2017-01-29T01:06:22.060Z,0
2017-01-29T01:07:22.051Z,0
2017-01-29T01:08:22.037Z,0
2017-01-29T01:09:22.003Z,0
2017-01-29T01:10:21.985Z,0
2017-01-29T01:11:21.968Z,0
2017-01-29T01:12:21.956Z,0
2017-01-29T01:13:21.939Z,0
2017-01-29T01:14:21.908Z,0
2017-01-29T01:15:21.894Z,0
2017-01-29T01:16:21.874Z,0
2017-01-29T01:17:21.456Z,4
2017-01-29T01:18:21.439Z,0
2017-01-29T01:19:21.826Z,4
2017-01-29T01:20:21.804Z,0
2017-01-29T01:21:21.785Z,0
2017-01-29T01:22:21.756Z,0
2017-01-29T01:23:21.743Z,0
2017-01-29T01:24:20.933Z,0
2017-01-29T01:25:21.709Z,0
2017-01-29T01:26:21.286Z,0
2017-01-29T01:27:21.662Z,0
2017-01-29T01:28:21.647Z,0
2017-01-29T01:29:21.231Z,0
2017-01-29T01:30:21.601Z,0
2017-01-29T01:31:21.588Z,0
2017-01-29T01:32:21.170Z,0
2017-01-29T01:33:50.527Z,0
2017-01-29T01:34:21.578Z,0
2017-01-29T01:35:21.509Z,0
2017-01-29T01:36:21.489Z,0
2017-01-29T01:37:21.472Z,0
2017-01-29T01:38:21.453Z,0
2017-01-29T01:39:21.037Z,0
2017-01-29T01:40:21.420Z,4
2017-01-29T01:41:21.005Z,4
2017-01-29T01:42:21.378Z,0
2017-01-29T01:43:20.562Z,0
2017-01-29T01:44:21.343Z,4
2017-01-29T01:45:21.319Z,0
2017-01-29T01:46:21.295Z,0
2017-01-29T01:47:21.280Z,0
2017-01-29T01:48:21.266Z,0
2017-01-29T01:49:21.238Z,0
2017-01-29T01:50:21.244Z,0
2017-01-29T01:51:21.215Z,0
2017-01-29T01:52:21.186Z,4
2017-01-29T01:53:21.169Z,0
2017-01-29T01:54:21.152Z,0
2017-01-29T01:55:21.137Z,0
2017-01-29T01:56:21.113Z,0
2017-01-29T01:57:21.090Z,0
2017-01-29T01:58:21.075Z,4
2017-01-29T01:59:21.055Z,0
2017-01-29T02:00:21.035Z,0
2017-01-29T02:01:21.017Z,0
2017-01-29T02:02:21.002Z,4
2017-01-29T02:03:20.980Z,0
2017-01-29T02:04:20.959Z,0
2017-01-29T02:05:20.943Z,0
2017-01-29T02:06:20.533Z,0
2017-01-29T02:07:20.901Z,4
2017-01-29T02:08:20.495Z,4
2017-01-29T02:09:20.867Z,0
2017-01-29T02:10:20.852Z,4
2017-01-29T02:11:20.831Z,0
2017-01-29T02:12:20.807Z,0
2017-01-29T02:13:20.800Z,0
2017-01-29T02:14:20.772Z,4
2017-01-29T02:15:20.765Z,0
2017-01-29T02:16:20.738Z,0
2017-01-29T02:17:20.743Z,0
2017-01-29T02:18:19.909Z,0
2017-01-29T02:19:20.288Z,0
2017-01-29T02:20:20.692Z,0
2017-01-29T02:21:20.266Z,0
2017-01-29T02:22:20.645Z,0
2017-01-29T02:23:20.604Z,0
2017-01-29T02:24:20.595Z,0
2017-01-29T02:25:20.577Z,0
2017-01-29T02:26:20.551Z,0
2017-01-29T02:27:20.541Z,0
2017-01-29T02:28:20.135Z,0
2017-01-29T02:29:20.107Z,0
2017-01-29T02:30:20.539Z,0
2017-01-29T02:31:20.462Z,0
2017-01-29T02:32:20.438Z,0
2017-01-29T02:33:20.423Z,0
2017-01-29T02:34:19.606Z,0
2017-01-29T02:35:19.992Z,0
2017-01-29T02:36:19.976Z,0
2017-01-29T02:37:20.351Z,0
2017-01-29T02:38:19.920Z,0
2017-01-29T02:39:20.302Z,0
2017-01-29T02:40:20.280Z,0
2017-01-29T02:41:19.974Z,0
2017-01-29T02:42:19.854Z,0
2017-01-29T02:43:20.239Z,0
2017-01-29T02:44:19.410Z,0
2017-01-29T02:45:20.187Z,0
2017-01-29T02:46:20.176Z,0
2017-01-29T02:47:20.146Z,0
2017-01-29T02:48:20.134Z,0
2017-01-29T02:49:19.715Z,0
2017-01-29T02:50:19.301Z,0
2017-01-29T02:51:19.676Z,0
2017-01-29T02:52:20.069Z,0
2017-01-29T02:53:20.116Z,0
2017-01-29T02:54:20.025Z,0
2017-01-29T02:55:19.598Z,0
2017-01-29T02:56:19.589Z,0
2017-01-29T02:57:19.966Z,0
2017-01-29T02:58:19.945Z,0
2017-01-29T02:59:19.932Z,0
2017-01-29T03:00:19.950Z,0
2017-01-29T03:01:19.890Z,0
2017-01-29T03:02:19.517Z,0
2017-01-29T03:03:19.896Z,0
2017-01-29T03:04:19.435Z,0
2017-01-29T03:05:19.807Z,0
2017-01-29T03:06:19.795Z,0
2017-01-29T03:07:19.767Z,0
2017-01-29T03:08:19.775Z,0
2017-01-29T03:09:19.337Z,0
2017-01-29T03:10:19.340Z,0
2017-01-29T03:11:19.346Z,0
2017-01-29T03:12:19.701Z,0
2017-01-29T03:13:19.656Z,0
2017-01-29T03:14:19.635Z,0
2017-01-29T03:15:19.719Z,0
2017-01-29T03:16:19.611Z,0
2017-01-29T03:17:19.582Z,0
2017-01-29T03:18:19.566Z,0
2017-01-29T03:19:19.545Z,0
2017-01-29T03:20:19.129Z,0
2017-01-29T03:21:19.114Z,0
2017-01-29T03:22:19.493Z,0
2017-01-29T03:23:19.481Z,0
2017-01-29T03:24:19.459Z,0
2017-01-29T03:25:19.435Z,0
2017-01-29T03:26:19.021Z,0
2017-01-29T03:27:19.008Z,0
2017-01-29T03:28:19.091Z,0
2017-01-29T03:29:19.408Z,0
2017-01-29T03:30:19.349Z,0
2017-01-29T03:31:18.917Z,0
2017-01-29T03:32:18.907Z,0
2017-01-29T03:33:19.283Z,0
2017-01-29T03:34:18.872Z,0
2017-01-29T03:35:19.326Z,0
2017-01-29T03:36:18.879Z,0
2017-01-29T03:37:18.830Z,0
2017-01-29T03:38:19.183Z,0
2017-01-29T03:39:19.161Z,0
2017-01-29T03:40:19.143Z,0
2017-01-29T03:41:19.137Z,0
2017-01-29T03:42:19.102Z,0
2017-01-29T03:43:19.090Z,0
2017-01-29T03:44:19.069Z,0
2017-01-29T03:45:18.656Z,0
2017-01-29T03:46:18.638Z,0
2017-01-29T03:47:19.013Z,0
2017-01-29T03:48:18.996Z,0
2017-01-29T03:49:18.978Z,0
2017-01-29T03:50:18.564Z,0
2017-01-29T03:51:18.145Z,0
2017-01-29T03:52:18.916Z,0
2017-01-29T03:53:18.504Z,0
2017-01-29T03:54:18.480Z,0
2017-01-29T03:55:18.865Z,0
2017-01-29T03:56:18.839Z,0
2017-01-29T03:57:18.822Z,0
2017-01-29T03:58:18.799Z,0
2017-01-29T03:59:18.789Z,0
2017-01-29T04:00:18.760Z,0
2017-01-29T04:01:18.746Z,0
2017-01-29T04:02:18.929Z,0
2017-01-29T04:03:17.926Z,0
2017-01-29T04:04:18.687Z,0
2017-01-29T04:05:18.268Z,0
2017-01-29T04:06:18.672Z,0
2017-01-29T04:07:18.232Z,0
2017-01-29T04:08:18.606Z,0
2017-01-29T04:09:18.671Z,0
2017-01-29T04:10:18.174Z,0
2017-01-29T04:11:18.550Z,0
2017-01-29T04:12:18.536Z,0
2017-01-29T04:13:18.521Z,0
2017-01-29T04:14:18.502Z,0
2017-01-29T04:15:18.480Z,0
2017-01-29T04:16:18.458Z,0
2017-01-29T04:17:18.440Z,0
2017-01-29T04:18:18.431Z,0
2017-01-29T04:19:18.403Z,0
2017-01-29T04:20:18.380Z,0
2017-01-29T04:21:18.365Z,0
2017-01-29T04:22:18.340Z,0
2017-01-29T04:23:18.327Z,0
2017-01-29T04:24:18.306Z,0
2017-01-29T04:25:17.888Z,0
2017-01-29T04:26:18.271Z,0
2017-01-29T04:27:18.247Z,0
2017-01-29T04:28:17.837Z,0
2017-01-29T04:29:18.215Z,0
2017-01-29T04:30:18.188Z,0
2017-01-29T04:31:18.201Z,0
2017-01-29T04:32:18.153Z,0
2017-01-29T04:33:18.133Z,0
2017-01-29T04:34:18.114Z,0
2017-01-29T04:35:18.092Z,0
2017-01-29T04:36:18.076Z,0
2017-01-29T04:37:18.085Z,0
2017-01-29T04:38:17.639Z,0
2017-01-29T04:39:18.016Z,0
2017-01-29T04:40:18.010Z,0
2017-01-29T04:41:17.594Z,0
2017-01-29T04:42:18.027Z,0
2017-01-29T04:43:17.552Z,0
2017-01-29T04:44:17.531Z,0
2017-01-29T04:45:17.906Z,0
2017-01-29T04:46:17.491Z,0
2017-01-29T04:47:17.871Z,0
2017-01-29T04:48:17.451Z,0
2017-01-29T04:49:17.830Z,0
2017-01-29T04:50:17.821Z,0
2017-01-29T04:51:17.798Z,0
2017-01-29T04:52:17.773Z,0
2017-01-29T04:53:17.357Z,0
2017-01-29T04:54:17.337Z,0
2017-01-29T04:55:17.342Z,0
2017-01-29T04:56:17.698Z,0
2017-01-29T04:57:17.276Z,0
2017-01-29T04:58:17.655Z,0
2017-01-29T04:59:17.636Z,0
2017-01-29T05:00:17.220Z,0
2017-01-29T05:01:17.612Z,0
2017-01-29T05:02:17.578Z,0
2017-01-29T05:03:17.558Z,0
2017-01-29T05:04:17.146Z,0
2017-01-29T05:05:17.545Z,0
2017-01-29T05:06:17.502Z,0
2017-01-29T05:07:17.092Z,0
2017-01-29T05:08:17.525Z,0
2017-01-29T05:09:17.047Z,0
2017-01-29T05:10:17.423Z,0
2017-01-29T05:11:17.400Z,0
2017-01-29T05:12:17.388Z,0
2017-01-29T05:13:16.966Z,0
2017-01-29T05:14:17.350Z,0
2017-01-29T05:15:16.930Z,0
2017-01-29T05:16:17.310Z,0
2017-01-29T05:17:16.892Z,0
2017-01-29T05:18:17.274Z,0
2017-01-29T05:19:17.255Z,0
2017-01-29T05:20:16.835Z,0
2017-01-29T05:21:17.213Z,0
2017-01-29T05:22:16.797Z,0
2017-01-29T05:23:17.180Z,0
2017-01-29T05:24:16.363Z,0
2017-01-29T05:25:16.729Z,0
2017-01-29T05:26:17.115Z,0
2017-01-29T05:27:17.099Z,0
2017-01-29T05:28:16.680Z,0
2017-01-29T05:29:17.058Z,0
2017-01-29T05:30:17.037Z,0
2017-01-29T05:31:17.013Z,0
2017-01-29T05:32:16.609Z,0
2017-01-29T05:33:16.987Z,0
2017-01-29T05:34:16.560Z,0
2017-01-29T05:35:16.142Z,0
2017-01-29T05:36:16.923Z,0
2017-01-29T05:37:16.907Z,0
2017-01-29T05:38:16.491Z,0
2017-01-29T05:39:16.863Z,0
2017-01-29T05:40:16.846Z,0
2017-01-29T05:41:16.425Z,0
2017-01-29T05:42:16.806Z,0
2017-01-29T05:43:16.792Z,0
2017-01-29T05:44:16.760Z,0
2017-01-29T05:45:16.745Z,0
2017-01-29T05:46:15.932Z,0
2017-01-29T05:47:16.704Z,0
2017-01-29T05:48:16.698Z,0
2017-01-29T05:49:16.281Z,0
2017-01-29T05:50:16.645Z,0
2017-01-29T05:51:16.632Z,0
2017-01-29T05:52:16.656Z,0
2017-01-29T05:53:16.593Z,0
2017-01-29T05:54:16.172Z,0
2017-01-29T05:55:16.548Z,0
2017-01-29T05:56:16.529Z,0
2017-01-29T05:57:16.116Z,0
2017-01-29T05:58:16.490Z,0
2017-01-29T05:59:16.475Z,0
2017-01-29T06:00:16.054Z,0
2017-01-29T06:01:16.438Z,0
2017-01-29T06:02:16.813Z,0
2017-01-29T06:03:15.993Z,0
2017-01-29T06:04:15.992Z,0
2017-01-29T06:05:16.355Z,0
2017-01-29T06:06:16.333Z,0
2017-01-29T06:07:16.309Z,0
2017-01-29T06:08:15.908Z,0
2017-01-29T06:09:16.270Z,0
2017-01-29T06:10:16.251Z,0
2017-01-29T06:11:15.843Z,0
2017-01-29T06:12:16.216Z,0
2017-01-29T06:13:15.794Z,0
2017-01-29T06:14:16.178Z,0
2017-01-29T06:15:15.752Z,0
2017-01-29T06:16:16.138Z,0
2017-01-29T06:17:16.123Z,0
2017-01-29T06:18:16.093Z,0
2017-01-29T06:19:16.069Z,0
2017-01-29T06:20:16.050Z,0
2017-01-29T06:21:15.638Z,0
2017-01-29T06:22:16.014Z,0
2017-01-29T06:23:15.993Z,0
2017-01-29T06:24:15.969Z,0
2017-01-29T06:25:15.952Z,0
2017-01-29T06:26:15.932Z,0
2017-01-29T06:27:15.119Z,0
2017-01-29T06:28:15.888Z,0
2017-01-29T06:29:15.869Z,0
2017-01-29T06:30:15.859Z,0
2017-01-29T06:31:15.435Z,0
2017-01-29T06:32:15.464Z,0
2017-01-29T06:33:15.393Z,0
2017-01-29T06:34:15.375Z,0
2017-01-29T06:35:15.349Z,0
2017-01-29T06:36:15.735Z,0
2017-01-29T06:37:15.712Z,0
2017-01-29T06:38:15.322Z,4
2017-01-29T06:39:14.876Z,0
2017-01-29T06:40:15.250Z,0
2017-01-29T06:41:15.626Z,4
2017-01-29T06:42:15.216Z,4
2017-01-29T06:43:15.195Z,0
2017-01-29T06:44:15.577Z,4
2017-01-29T06:45:15.145Z,0
2017-01-29T06:46:15.150Z,4
2017-01-29T06:47:15.111Z,8
2017-01-29T06:48:14.693Z,4
2017-01-29T06:49:15.068Z,8
2017-01-29T06:50:15.057Z,8
2017-01-29T06:51:15.424Z,8
2017-01-29T06:52:15.403Z,8
2017-01-29T06:53:15.392Z,12
2017-01-29T06:54:14.966Z,16
2017-01-29T06:55:15.357Z,12
2017-01-29T06:56:14.929Z,16
2017-01-29T06:57:15.306Z,20
2017-01-29T06:58:14.894Z,24
2017-01-29T06:59:14.468Z,24
2017-01-29T07:00:15.241Z,32
2017-01-29T07:01:14.826Z,32
2017-01-29T07:02:15.205Z,36
2017-01-29T07:03:15.188Z,36
2017-01-29T07:04:15.157Z,40
2017-01-29T07:05:15.141Z,44
2017-01-29T07:06:15.131Z,52
2017-01-29T07:07:15.107Z,56
2017-01-29T07:08:14.687Z,60
2017-01-29T07:09:14.676Z,64
2017-01-29T07:10:15.092Z,72
2017-01-29T07:11:14.233Z,80
2017-01-29T07:12:15.014Z,84
2017-01-29T07:13:14.216Z,96
2017-01-29T07:14:14.575Z,108
2017-01-29T07:15:14.542Z,120
2017-01-29T07:16:14.141Z,132
2017-01-29T07:17:14.503Z,136
2017-01-29T07:18:14.502Z,148
2017-01-29T07:19:14.076Z,184
2017-01-29T07:20:14.850Z,240
2017-01-29T07:21:14.033Z,312
2017-01-29T07:22:14.804Z,360
2017-01-29T07:23:13.987Z,384
2017-01-29T07:24:14.368Z,396
2017-01-29T07:25:14.351Z,412
2017-01-29T07:26:14.325Z,456
2017-01-29T07:27:14.702Z,504
2017-01-29T07:28:14.286Z,540
2017-01-29T07:29:14.265Z,576
2017-01-29T07:30:14.648Z,608
2017-01-29T07:31:13.824Z,624
2017-01-29T07:32:14.609Z,628
2017-01-29T07:33:14.187Z,624
2017-01-29T07:34:13.775Z,620
2017-01-29T07:35:14.147Z,648
2017-01-29T07:36:14.520Z,684
2017-01-29T07:37:14.504Z,684
2017-01-29T07:38:14.088Z,696
2017-01-29T07:39:14.130Z,712
2017-01-29T07:40:14.099Z,716
2017-01-29T07:41:14.426Z,704
2017-01-29T07:42:14.401Z,692
2017-01-29T07:43:13.984Z,700
2017-01-29T07:44:13.965Z,700
2017-01-29T07:45:14.348Z,720
2017-01-29T07:46:14.324Z,728
2017-01-29T07:47:14.353Z,740
2017-01-29T07:48:13.907Z,752
2017-01-29T07:49:14.268Z,768
2017-01-29T07:50:13.864Z,776
2017-01-29T07:51:14.238Z,780
2017-01-29T07:52:14.207Z,756
2017-01-29T07:53:14.188Z,728
2017-01-29T07:54:14.173Z,744
2017-01-29T07:55:14.177Z,760
2017-01-29T07:56:14.133Z,744
2017-01-29T07:57:14.109Z,712
2017-01-29T07:58:13.298Z,684
2017-01-29T07:59:14.074Z,652
2017-01-29T08:00:14.054Z,644
2017-01-29T08:01:14.047Z,664
2017-01-29T08:02:13.620Z,696
2017-01-29T08:03:13.597Z,712
2017-01-29T08:04:14.024Z,692
2017-01-29T08:05:13.958Z,700
2017-01-29T08:06:13.140Z,732
2017-01-29T08:07:13.908Z,772
2017-01-29T08:08:13.892Z,764
2017-01-29T08:09:13.880Z,700
2017-01-29T08:10:13.853Z,640
2017-01-29T08:11:13.836Z,560
2017-01-29T08:12:13.815Z,484
2017-01-29T08:13:13.803Z,424
2017-01-29T08:14:13.785Z,392
2017-01-29T08:15:13.802Z,376
2017-01-29T08:16:13.748Z,292
2017-01-29T08:17:13.728Z,368
2017-01-29T08:18:13.721Z,516
2017-01-29T08:19:13.695Z,572
2017-01-29T08:20:13.667Z,708
2017-01-29T08:21:13.641Z,864
2017-01-29T08:22:13.225Z,1032
2017-01-29T08:23:13.614Z,1288
2017-01-29T08:24:13.188Z,1528
2017-01-29T08:25:13.578Z,1524
2017-01-29T08:26:13.144Z,1400
2017-01-29T08:27:13.133Z,1408
2017-01-29T08:28:13.503Z,1556
2017-01-29T08:29:13.491Z,1640
2017-01-29T08:30:13.470Z,1504
2017-01-29T08:31:13.451Z,1168
2017-01-29T08:32:13.433Z,820
2017-01-29T08:33:13.412Z,532
2017-01-29T08:34:13.386Z,520
2017-01-29T08:35:13.368Z,600
2017-01-29T08:36:13.347Z,596
2017-01-29T08:37:12.948Z,712
2017-01-29T08:38:12.520Z,812
2017-01-29T08:39:13.282Z,756
2017-01-29T08:40:13.263Z,756
2017-01-29T08:41:13.248Z,808
2017-01-29T08:42:12.445Z,888
2017-01-29T08:43:12.810Z,832
2017-01-29T08:44:12.797Z,888
2017-01-29T08:45:12.772Z,976
2017-01-29T08:46:13.148Z,1160
2017-01-29T08:47:13.132Z,1416
2017-01-29T08:48:12.717Z,1680
2017-01-29T08:49:13.090Z,1772
2017-01-29T08:50:12.675Z,1640
2017-01-29T08:51:13.062Z,1556
2017-01-29T08:52:13.035Z,1548
2017-01-29T08:53:12.219Z,1540
2017-01-29T08:54:12.999Z,1480
2017-01-29T08:55:12.582Z,1412
2017-01-29T08:56:12.949Z,1324
2017-01-29T08:57:12.936Z,1244
2017-01-29T08:58:12.517Z,1156
2017-01-29T08:59:12.890Z,1116
2017-01-29T09:00:12.877Z,1020
2017-01-29T09:01:12.862Z,960
2017-01-29T09:02:12.851Z,1076
2017-01-29T09:03:12.826Z,1544
2017-01-29T09:04:12.422Z,2020
2017-01-29T09:05:12.788Z,2120
2017-01-29T09:06:11.974Z,2124
2017-01-29T09:07:12.743Z,2108
2017-01-29T09:08:12.340Z,2288
2017-01-29T09:09:12.700Z,2412
2017-01-29T09:10:12.290Z,2236
2017-01-29T09:11:12.669Z,2104
2017-01-29T09:12:12.264Z,2376
2017-01-29T09:13:12.647Z,2680
2017-01-29T09:14:12.622Z,2492
2017-01-29T09:15:12.586Z,2556
2017-01-29T09:16:12.173Z,2664
2017-01-29T09:17:12.157Z,2200
2017-01-29T09:18:12.542Z,2232
2017-01-29T09:19:12.111Z,2244
2017-01-29T09:20:12.488Z,2100
2017-01-29T09:21:12.078Z,2012
2017-01-29T09:22:12.059Z,1692
2017-01-29T09:23:12.440Z,2012
2017-01-29T09:24:12.028Z,2648
2017-01-29T09:25:12.401Z,2584
2017-01-29T09:26:12.385Z,2172
2017-01-29T09:27:12.369Z,1844
2017-01-29T09:28:12.345Z,1864
2017-01-29T09:29:12.322Z,1832
2017-01-29T09:30:12.304Z,2036
2017-01-29T09:31:12.287Z,2020
2017-01-29T09:32:11.871Z,2232
2017-01-29T09:33:12.246Z,2364
2017-01-29T09:34:12.226Z,2144
2017-01-29T09:35:11.813Z,1724
2017-01-29T09:36:12.183Z,1660
2017-01-29T09:37:11.776Z,1716
2017-01-29T09:38:11.357Z,1812
2017-01-29T09:39:12.136Z,2008
2017-01-29T09:40:11.725Z,2016
2017-01-29T09:41:12.094Z,2396
2017-01-29T09:42:12.076Z,3208
2017-01-29T09:43:12.063Z,2684
2017-01-29T09:44:11.641Z,2516
2017-01-29T09:45:12.022Z,2804
2017-01-29T09:46:12.005Z,3832
2017-01-29T09:47:11.617Z,4124
2017-01-29T09:48:11.575Z,4256
2017-01-29T09:49:11.543Z,4628
2017-01-29T09:50:11.932Z,4076
2017-01-29T09:51:11.513Z,3568
2017-01-29T09:52:11.895Z,3864
2017-01-29T09:53:11.475Z,4236
2017-01-29T09:54:11.452Z,3824
2017-01-29T09:55:11.444Z,3092
2017-01-29T09:56:12.029Z,2820
2017-01-29T09:57:11.410Z,2436
2017-01-29T09:58:11.775Z,2188
2017-01-29T09:59:11.757Z,1904
2017-01-29T10:00:11.793Z,1776
2017-01-29T10:01:11.742Z,1848
2017-01-29T10:02:11.319Z,2112
2017-01-29T10:03:11.488Z,2432
2017-01-29T10:04:10.887Z,2960
2017-01-29T10:05:11.658Z,2584
2017-01-29T10:06:11.234Z,2620
2017-01-29T10:07:11.609Z,2648
2017-01-29T10:08:11.194Z,2220
2017-01-29T10:09:11.575Z,2064
2017-01-29T10:10:11.160Z,2004
2017-01-29T10:11:11.206Z,1872
2017-01-29T10:12:11.526Z,1700
2017-01-29T10:13:11.518Z,1824
2017-01-29T10:14:11.088Z,2024
2017-01-29T10:15:11.066Z,2084
2017-01-29T10:16:11.449Z,2496
2017-01-29T10:17:11.430Z,3284
2017-01-29T10:18:11.411Z,4488
2017-01-29T10:19:11.398Z,3956
2017-01-29T10:20:10.978Z,4744
2017-01-29T10:21:11.358Z,3660
2017-01-29T10:22:11.337Z,3988
2017-01-29T10:23:11.322Z,4860
2017-01-29T10:24:11.328Z,6628
2017-01-29T10:25:10.963Z,4944
2017-01-29T10:26:10.864Z,4584
2017-01-29T10:27:11.244Z,5756
2017-01-29T10:28:11.229Z,5840
2017-01-29T10:29:10.807Z,5692
2017-01-29T10:30:10.807Z,5592
2017-01-29T10:31:11.172Z,5552
2017-01-29T10:32:10.756Z,5596
2017-01-29T10:33:11.140Z,6380
2017-01-29T10:34:11.121Z,7420
2017-01-29T10:35:10.706Z,8448
2017-01-29T10:36:11.080Z,9648
2017-01-29T10:37:10.670Z,9888
2017-01-29T10:38:10.647Z,15040
2017-01-29T10:39:11.044Z,15816
2017-01-29T10:40:11.015Z,9700
2017-01-29T10:41:10.995Z,12708
2017-01-29T10:42:10.978Z,6612
2017-01-29T10:43:10.570Z,5372
2017-01-29T10:44:10.151Z,4980
2017-01-29T10:45:10.144Z,5028
2017-01-29T10:46:10.529Z,5620
2017-01-29T10:47:10.496Z,5528
2017-01-29T10:48:10.901Z,4748
2017-01-29T10:49:10.873Z,4992
2017-01-29T10:50:10.452Z,6072
2017-01-29T10:51:10.831Z,5652
2017-01-29T10:52:09.623Z,5792
2017-01-29T10:53:10.794Z,6312
2017-01-29T10:54:10.394Z,7368
2017-01-29T10:55:10.370Z,7548
2017-01-29T10:56:10.743Z,7772
2017-01-29T10:57:10.730Z,8248
2017-01-29T10:58:10.707Z,7536
2017-01-29T10:59:10.289Z,6696
2017-01-29T11:00:10.324Z,8972
2017-01-29T11:01:10.665Z,8836
2017-01-29T11:02:10.241Z,10008
2017-01-29T11:03:10.623Z,11724
2017-01-29T11:04:10.602Z,10996
2017-01-29T11:05:10.189Z,11332
2017-01-29T11:06:10.568Z,9380
2017-01-29T11:07:10.559Z,7240
2017-01-29T11:08:10.139Z,6248
2017-01-29T11:09:10.522Z,4928
2017-01-29T11:10:10.099Z,3856
2017-01-29T11:11:10.484Z,3844
2017-01-29T11:12:10.071Z,4148
2017-01-29T11:13:10.057Z,4552
2017-01-29T11:14:10.433Z,4848
2017-01-29T11:15:09.624Z,5708
2017-01-29T11:16:10.396Z,6556
2017-01-29T11:17:10.381Z,7244
2017-01-29T11:18:09.972Z,8404
2017-01-29T11:19:09.958Z,7696
2017-01-29T11:20:10.332Z,8428
2017-01-29T11:21:10.318Z,8452
2017-01-29T11:22:10.300Z,7832
2017-01-29T11:23:10.279Z,6132
2017-01-29T11:24:10.262Z,5400
2017-01-29T11:25:09.842Z,6068
2017-01-29T11:26:09.836Z,6512
2017-01-29T11:27:09.819Z,5996
2017-01-29T11:28:09.804Z,4484
2017-01-29T11:29:09.779Z,2960
2017-01-29T11:30:10.167Z,3292
2017-01-29T11:31:09.746Z,3616
2017-01-29T11:32:10.151Z,3476
2017-01-29T11:33:10.116Z,3652
2017-01-29T11:34:10.104Z,3720
2017-01-29T11:35:10.134Z,3172
2017-01-29T11:36:10.135Z,3788
2017-01-29T11:37:09.647Z,3504
2017-01-29T11:38:09.630Z,3088
2017-01-29T11:39:10.003Z,3664
2017-01-29T11:40:09.591Z,5204
2017-01-29T11:41:09.576Z,6716
2017-01-29T11:42:09.555Z,7136
2017-01-29T11:43:09.935Z,6124
2017-01-29T11:44:09.525Z,5192
2017-01-29T11:45:09.501Z,5152
2017-01-29T11:46:09.884Z,5600
2017-01-29T11:47:09.897Z,5788
2017-01-29T11:48:09.843Z,5352
2017-01-29T11:49:09.435Z,5452
2017-01-29T11:50:09.815Z,5980
2017-01-29T11:51:09.796Z,5880
2017-01-29T11:52:09.380Z,5584
2017-01-29T11:53:09.768Z,5620
2017-01-29T11:54:09.350Z,5644
2017-01-29T11:55:09.734Z,5312
2017-01-29T11:56:09.313Z,4760
2017-01-29T11:57:09.694Z,4492
2017-01-29T11:58:09.688Z,4956
2017-01-29T11:59:09.257Z,5680
2017-01-29T12:00:09.644Z,4768
2017-01-29T12:01:09.633Z,5332
2017-01-29T12:02:09.214Z,5856
2017-01-29T12:03:09.396Z,5084
2017-01-29T12:04:09.587Z,5816
2017-01-29T12:05:09.577Z,6896
2017-01-29T12:06:09.152Z,7840
2017-01-29T12:07:09.532Z,7484
2017-01-29T12:08:09.131Z,8392
2017-01-29T12:09:09.489Z,7836
2017-01-29T12:10:09.490Z,6832
2017-01-29T12:11:09.456Z,7424
2017-01-29T12:12:09.439Z,6920
2017-01-29T12:13:09.117Z,6644
2017-01-29T12:14:09.025Z,7276
2017-01-29T12:15:09.397Z,5008
2017-01-29T12:16:09.382Z,5496
2017-01-29T12:17:09.365Z,5428
2017-01-29T12:18:09.348Z,4072
2017-01-29T12:19:08.971Z,3520
2017-01-29T12:20:08.929Z,3532
2017-01-29T12:21:09.290Z,4008
2017-01-29T12:22:09.264Z,3924
2017-01-29T12:23:08.876Z,4404
2017-01-29T12:24:09.240Z,5140
2017-01-29T12:25:09.215Z,5508
2017-01-29T12:26:08.804Z,7220
2017-01-29T12:27:09.236Z,8324
2017-01-29T12:28:08.778Z,9044
2017-01-29T12:29:09.214Z,11276
2017-01-29T12:30:08.749Z,7464
2017-01-29T12:31:09.124Z,8148
2017-01-29T12:32:09.115Z,8848
2017-01-29T12:33:09.087Z,8384
2017-01-29T12:34:09.074Z,9516
2017-01-29T12:35:09.056Z,10492
2017-01-29T12:36:08.638Z,13760
2017-01-29T12:37:09.015Z,12364
2017-01-29T12:38:09.003Z,10980
2017-01-29T12:39:08.985Z,8880
2017-01-29T12:40:08.574Z,7712
2017-01-29T12:41:08.960Z,6972
2017-01-29T12:42:09.017Z,9900
2017-01-29T12:43:08.922Z,18496
2017-01-29T12:44:08.512Z,19104
2017-01-29T12:45:08.907Z,15608
2017-01-29T12:46:08.477Z,11688
2017-01-29T12:47:08.862Z,20864
2017-01-29T12:48:08.845Z,20960
2017-01-29T12:49:08.855Z,22560
2017-01-29T12:50:08.419Z,23488
2017-01-29T12:51:08.792Z,24928
2017-01-29T12:52:08.784Z,21216
2017-01-29T12:53:08.770Z,21216
2017-01-29T12:54:08.773Z,23840
2017-01-29T12:55:08.746Z,23488
2017-01-29T12:56:08.733Z,20672
2017-01-29T12:57:08.719Z,20480
2017-01-29T12:58:08.716Z,19360
2017-01-29T12:59:08.299Z,18304
2017-01-29T13:00:08.685Z,18976
2017-01-29T13:01:08.672Z,19680
2017-01-29T13:02:08.662Z,19232
2017-01-29T13:03:08.323Z,18464
2017-01-29T13:04:08.243Z,18848
2017-01-29T13:05:08.235Z,20576
2017-01-29T13:06:08.230Z,20320
2017-01-29T13:07:08.229Z,11456
2017-01-29T13:08:08.202Z,18848
2017-01-29T13:09:08.603Z,12804
2017-01-29T13:10:08.587Z,18688
2017-01-29T13:11:08.570Z,14072
2017-01-29T13:12:08.163Z,12340
2017-01-29T13:13:08.551Z,21568
2017-01-29T13:14:08.588Z,25312
2017-01-29T13:15:08.533Z,9288
2017-01-29T13:16:08.518Z,9768
2017-01-29T13:17:08.511Z,9748
2017-01-29T13:18:08.107Z,7012
2017-01-29T13:19:08.134Z,6884
2017-01-29T13:20:08.491Z,6860
2017-01-29T13:21:08.475Z,7328
2017-01-29T13:22:08.082Z,14984
2017-01-29T13:23:08.064Z,6868
2017-01-29T13:24:08.454Z,5068
2017-01-29T13:25:08.041Z,4980
2017-01-29T13:26:08.426Z,4340
2017-01-29T13:27:08.457Z,3516
2017-01-29T13:28:08.007Z,3444
2017-01-29T13:29:07.591Z,4332
2017-01-29T13:30:07.990Z,5268
2017-01-29T13:31:07.974Z,4828
2017-01-29T13:32:07.952Z,3892
2017-01-29T13:33:08.341Z,4220
2017-01-29T13:34:08.332Z,4360
2017-01-29T13:35:07.915Z,3680
2017-01-29T13:36:08.350Z,3468
2017-01-29T13:37:07.914Z,3184
2017-01-29T13:38:08.281Z,3040
2017-01-29T13:39:08.291Z,2860
2017-01-29T13:40:07.860Z,2640
2017-01-29T13:41:07.475Z,2352
2017-01-29T13:42:08.225Z,2108
2017-01-29T13:43:08.207Z,1988
2017-01-29T13:44:08.198Z,2168
2017-01-29T13:45:08.289Z,2764
2017-01-29T13:46:08.196Z,3108
2017-01-29T13:47:08.320Z,3596
2017-01-29T13:48:08.162Z,3700
2017-01-29T13:49:08.119Z,3576
2017-01-29T13:50:08.121Z,3472
2017-01-29T13:51:07.698Z,3356
2017-01-29T13:52:08.079Z,3508
2017-01-29T13:53:08.070Z,4088
2017-01-29T13:54:08.054Z,4096
2017-01-29T13:55:07.643Z,3892
2017-01-29T13:56:08.024Z,3936
2017-01-29T13:57:08.010Z,3996
2017-01-29T13:58:07.589Z,4464
2017-01-29T13:59:07.983Z,3924
2017-01-29T14:00:07.556Z,3736
2017-01-29T14:01:07.594Z,3988
2017-01-29T14:02:07.533Z,4132